sensor_id;sensor_type;location;lat;lon;timestamp;P1;durP1;ratioP1;P2;durP2;ratioP2
60610;SDS011;46439;51.164;13.572;2023-07-13T00:02:25;1.50;;;1.40;;
60610;SDS011;46439;51.164;13.572;2023-07-13T00:04:53;2.90;;;1.70;;
60610;SDS011;46439;51.164;13.572;2023-07-13T00:07:22;1.60;;;1.50;;
60610;SDS011;46439;51.164;13.572;2023-07-13T00:09:50;1.50;;;1.40;;
60610;SDS011;46439;51.164;13.572;2023-07-13T00:12:32;2.50;;;1.50;;
60610;SDS011;46439;51.164;13.572;2023-07-13T00:15:04;4.20;;;1.50;;
60610;SDS011;46439;51.164;13.572;2023-07-13T00:17:39;2.30;;;1.40;;
60610;SDS011;46439;51.164;13.572;2023-07-13T00:20:08;3.20;;;1.60;;
60610;SDS011;46439;51.164;13.572;2023-07-13T00:22:38;1.50;;;1.40;;
60610;SDS011;46439;51.164;13.572;2023-07-13T00:25:08;2.00;;;1.50;;
60610;SDS011;46439;51.164;13.572;2023-07-13T00:27:38;1.60;;;1.40;;
60610;SDS011;46439;51.164;13.572;2023-07-13T00:30:09;1.70;;;1.60;;
60610;SDS011;46439;51.164;13.572;2023-07-13T00:32:38;1.70;;;1.60;;
60610;SDS011;46439;51.164;13.572;2023-07-13T00:35:08;2.50;;;1.40;;
60610;SDS011;46439;51.164;13.572;2023-07-13T00:37:37;2.00;;;1.40;;
60610;SDS011;46439;51.164;13.572;2023-07-13T00:40:06;2.10;;;1.40;;
60610;SDS011;46439;51.164;13.572;2023-07-13T00:45:06;2.30;;;1.70;;
60610;SDS011;46439;51.164;13.572;2023-07-13T00:47:48;3.10;;;1.50;;
60610;SDS011;46439;51.164;13.572;2023-07-13T00:50:18;2.20;;;1.40;;
60610;SDS011;46439;51.164;13.572;2023-07-13T00:55:17;3.30;;;1.50;;
60610;SDS011;46439;51.164;13.572;2023-07-13T00:57:47;1.50;;;1.40;;
60610;SDS011;46439;51.164;13.572;2023-07-13T01:00:16;1.50;;;1.40;;
60610;SDS011;46439;51.164;13.572;2023-07-13T01:02:47;3.20;;;1.50;;
60610;SDS011;46439;51.164;13.572;2023-07-13T01:05:17;3.20;;;1.50;;
60610;SDS011;46439;51.164;13.572;2023-07-13T01:07:48;3.60;;;1.50;;
60610;SDS011;46439;51.164;13.572;2023-07-13T01:10:19;2.70;;;1.80;;
60610;SDS011;46439;51.164;13.572;2023-07-13T01:12:50;1.60;;;1.40;;
60610;SDS011;46439;51.164;13.572;2023-07-13T01:15:38;2.80;;;1.60;;
60610;SDS011;46439;51.164;13.572;2023-07-13T01:18:09;2.40;;;1.50;;
60610;SDS011;46439;51.164;13.572;2023-07-13T01:20:40;1.60;;;1.40;;
60610;SDS011;46439;51.164;13.572;2023-07-13T01:23:14;2.60;;;1.60;;
60610;SDS011;46439;51.164;13.572;2023-07-13T01:25:42;3.30;;;1.50;;
60610;SDS011;46439;51.164;13.572;2023-07-13T01:28:11;2.40;;;1.40;;
60610;SDS011;46439;51.164;13.572;2023-07-13T01:30:39;2.80;;;1.50;;
60610;SDS011;46439;51.164;13.572;2023-07-13T01:33:12;2.90;;;1.60;;
60610;SDS011;46439;51.164;13.572;2023-07-13T01:35:43;2.00;;;1.50;;
60610;SDS011;46439;51.164;13.572;2023-07-13T01:38:12;2.70;;;1.60;;
60610;SDS011;46439;51.164;13.572;2023-07-13T01:40:44;2.50;;;1.50;;
60610;SDS011;46439;51.164;13.572;2023-07-13T01:43:12;1.60;;;1.40;;
60610;SDS011;46439;51.164;13.572;2023-07-13T01:45:41;3.10;;;1.60;;
60610;SDS011;46439;51.164;13.572;2023-07-13T01:48:10;1.50;;;1.40;;
60610;SDS011;46439;51.164;13.572;2023-07-13T01:50:40;2.90;;;1.70;;
60610;SDS011;46439;51.164;13.572;2023-07-13T01:53:08;2.20;;;1.60;;
60610;SDS011;46439;51.164;13.572;2023-07-13T01:55:39;1.90;;;1.70;;
60610;SDS011;46439;51.164;13.572;2023-07-13T01:58:08;1.80;;;1.60;;
60610;SDS011;46439;51.164;13.572;2023-07-13T02:00:36;2.70;;;1.60;;
60610;SDS011;46439;51.164;13.572;2023-07-13T02:03:05;5.10;;;1.70;;
60610;SDS011;46439;51.164;13.572;2023-07-13T02:05:33;2.20;;;1.70;;
60610;SDS011;46439;51.164;13.572;2023-07-13T02:08:03;2.90;;;1.60;;
60610;SDS011;46439;51.164;13.572;2023-07-13T02:10:31;3.00;;;1.50;;
60610;SDS011;46439;51.164;13.572;2023-07-13T02:13:07;2.30;;;1.50;;
60610;SDS011;46439;51.164;13.572;2023-07-13T02:15:37;3.70;;;1.70;;
60610;SDS011;46439;51.164;13.572;2023-07-13T02:18:09;3.00;;;1.60;;
60610;SDS011;46439;51.164;13.572;2023-07-13T02:20:39;3.00;;;1.60;;
60610;SDS011;46439;51.164;13.572;2023-07-13T02:23:07;3.90;;;1.70;;
60610;SDS011;46439;51.164;13.572;2023-07-13T02:25:35;2.70;;;1.70;;
60610;SDS011;46439;51.164;13.572;2023-07-13T02:28:04;2.90;;;1.50;;
60610;SDS011;46439;51.164;13.572;2023-07-13T02:30:33;2.10;;;1.70;;
60610;SDS011;46439;51.164;13.572;2023-07-13T02:33:02;1.70;;;1.50;;
60610;SDS011;46439;51.164;13.572;2023-07-13T02:35:31;1.80;;;1.30;;
60610;SDS011;46439;51.164;13.572;2023-07-13T02:37:59;2.10;;;1.60;;
60610;SDS011;46439;51.164;13.572;2023-07-13T02:40:28;7.20;;;2.00;;
60610;SDS011;46439;51.164;13.572;2023-07-13T02:42:59;1.70;;;1.60;;
60610;SDS011;46439;51.164;13.572;2023-07-13T02:45:28;2.20;;;1.50;;
60610;SDS011;46439;51.164;13.572;2023-07-13T02:47:56;3.70;;;1.70;;
60610;SDS011;46439;51.164;13.572;2023-07-13T02:50:25;2.10;;;1.50;;
60610;SDS011;46439;51.164;13.572;2023-07-13T02:52:53;2.00;;;1.60;;
60610;SDS011;46439;51.164;13.572;2023-07-13T02:55:22;3.70;;;1.40;;
60610;SDS011;46439;51.164;13.572;2023-07-13T02:57:50;3.40;;;1.50;;
60610;SDS011;46439;51.164;13.572;2023-07-13T03:00:21;5.10;;;1.70;;
60610;SDS011;46439;51.164;13.572;2023-07-13T03:02:49;2.80;;;1.40;;
60610;SDS011;46439;51.164;13.572;2023-07-13T03:05:19;4.20;;;1.80;;
60610;SDS011;46439;51.164;13.572;2023-07-13T03:07:47;2.60;;;1.70;;
60610;SDS011;46439;51.164;13.572;2023-07-13T03:10:16;4.00;;;1.60;;
60610;SDS011;46439;51.164;13.572;2023-07-13T03:12:45;1.70;;;1.60;;
60610;SDS011;46439;51.164;13.572;2023-07-13T03:15:14;4.50;;;1.40;;
60610;SDS011;46439;51.164;13.572;2023-07-13T03:17:42;1.90;;;1.50;;
60610;SDS011;46439;51.164;13.572;2023-07-13T03:20:11;3.20;;;1.70;;
60610;SDS011;46439;51.164;13.572;2023-07-13T03:22:40;2.40;;;1.60;;
60610;SDS011;46439;51.164;13.572;2023-07-13T03:25:08;4.10;;;1.60;;
60610;SDS011;46439;51.164;13.572;2023-07-13T03:27:37;3.60;;;1.70;;
60610;SDS011;46439;51.164;13.572;2023-07-13T03:30:07;1.70;;;1.60;;
60610;SDS011;46439;51.164;13.572;2023-07-13T03:32:36;2.20;;;1.50;;
60610;SDS011;46439;51.164;13.572;2023-07-13T03:35:05;3.30;;;1.60;;
60610;SDS011;46439;51.164;13.572;2023-07-13T03:37:35;3.90;;;1.70;;
60610;SDS011;46439;51.164;13.572;2023-07-13T03:40:09;2.20;;;1.50;;
60610;SDS011;46439;51.164;13.572;2023-07-13T03:42:39;2.00;;;1.40;;
60610;SDS011;46439;51.164;13.572;2023-07-13T03:45:08;2.50;;;1.60;;
60610;SDS011;46439;51.164;13.572;2023-07-13T03:47:37;1.90;;;1.70;;
60610;SDS011;46439;51.164;13.572;2023-07-13T03:50:06;2.00;;;1.60;;
60610;SDS011;46439;51.164;13.572;2023-07-13T03:52:35;3.30;;;1.70;;
60610;SDS011;46439;51.164;13.572;2023-07-13T03:55:05;3.40;;;1.70;;
60610;SDS011;46439;51.164;13.572;2023-07-13T03:57:34;3.20;;;1.70;;
60610;SDS011;46439;51.164;13.572;2023-07-13T04:00:03;3.60;;;1.70;;
60610;SDS011;46439;51.164;13.572;2023-07-13T04:02:33;2.90;;;1.80;;
60610;SDS011;46439;51.164;13.572;2023-07-13T04:05:02;4.30;;;1.70;;
60610;SDS011;46439;51.164;13.572;2023-07-13T04:07:33;4.40;;;1.70;;
60610;SDS011;46439;51.164;13.572;2023-07-13T04:10:01;5.40;;;1.70;;
60610;SDS011;46439;51.164;13.572;2023-07-13T04:12:30;2.90;;;1.80;;
60610;SDS011;46439;51.164;13.572;2023-07-13T04:14:59;2.90;;;1.80;;
60610;SDS011;46439;51.164;13.572;2023-07-13T04:17:27;3.40;;;2.00;;
60610;SDS011;46439;51.164;13.572;2023-07-13T04:19:56;6.20;;;1.90;;
60610;SDS011;46439;51.164;13.572;2023-07-13T04:22:24;5.00;;;1.80;;
60610;SDS011;46439;51.164;13.572;2023-07-13T04:24:52;5.20;;;2.10;;
60610;SDS011;46439;51.164;13.572;2023-07-13T04:27:21;3.70;;;1.80;;
60610;SDS011;46439;51.164;13.572;2023-07-13T04:29:49;3.40;;;1.70;;
60610;SDS011;46439;51.164;13.572;2023-07-13T04:32:18;2.70;;;1.70;;
60610;SDS011;46439;51.164;13.572;2023-07-13T04:34:46;3.60;;;1.90;;
60610;SDS011;46439;51.164;13.572;2023-07-13T04:37:19;4.90;;;2.30;;
60610;SDS011;46439;51.164;13.572;2023-07-13T04:39:48;4.10;;;2.20;;
60610;SDS011;46439;51.164;13.572;2023-07-13T04:42:17;4.90;;;1.90;;
60610;SDS011;46439;51.164;13.572;2023-07-13T04:44:48;5.70;;;2.00;;
60610;SDS011;46439;51.164;13.572;2023-07-13T04:47:18;5.20;;;2.00;;
60610;SDS011;46439;51.164;13.572;2023-07-13T04:49:46;2.50;;;2.00;;
60610;SDS011;46439;51.164;13.572;2023-07-13T04:52:15;2.80;;;2.00;;
60610;SDS011;46439;51.164;13.572;2023-07-13T04:54:43;2.80;;;1.90;;
60610;SDS011;46439;51.164;13.572;2023-07-13T04:57:12;6.10;;;1.90;;
60610;SDS011;46439;51.164;13.572;2023-07-13T04:59:40;4.50;;;2.00;;
60610;SDS011;46439;51.164;13.572;2023-07-13T05:02:08;3.00;;;1.80;;
60610;SDS011;46439;51.164;13.572;2023-07-13T05:04:37;5.30;;;1.80;;
60610;SDS011;46439;51.164;13.572;2023-07-13T05:07:06;5.00;;;1.80;;
60610;SDS011;46439;51.164;13.572;2023-07-13T05:09:34;3.40;;;2.20;;
60610;SDS011;46439;51.164;13.572;2023-07-13T05:12:04;3.40;;;1.90;;
60610;SDS011;46439;51.164;13.572;2023-07-13T05:14:34;4.90;;;1.80;;
60610;SDS011;46439;51.164;13.572;2023-07-13T05:17:03;4.80;;;1.80;;
60610;SDS011;46439;51.164;13.572;2023-07-13T05:19:32;3.20;;;1.70;;
60610;SDS011;46439;51.164;13.572;2023-07-13T05:22:00;3.50;;;1.70;;
60610;SDS011;46439;51.164;13.572;2023-07-13T05:24:30;3.40;;;1.70;;
60610;SDS011;46439;51.164;13.572;2023-07-13T05:26:59;6.00;;;1.80;;
60610;SDS011;46439;51.164;13.572;2023-07-13T05:29:27;3.30;;;1.60;;
60610;SDS011;46439;51.164;13.572;2023-07-13T05:31:56;2.90;;;1.50;;
60610;SDS011;46439;51.164;13.572;2023-07-13T05:34:24;3.90;;;1.80;;
60610;SDS011;46439;51.164;13.572;2023-07-13T05:36:53;3.70;;;1.80;;
60610;SDS011;46439;51.164;13.572;2023-07-13T05:39:21;4.20;;;1.70;;
60610;SDS011;46439;51.164;13.572;2023-07-13T05:41:51;6.20;;;2.20;;
60610;SDS011;46439;51.164;13.572;2023-07-13T05:44:19;2.40;;;1.70;;
60610;SDS011;46439;51.164;13.572;2023-07-13T05:46:48;4.00;;;1.50;;
60610;SDS011;46439;51.164;13.572;2023-07-13T05:49:16;2.80;;;1.70;;
60610;SDS011;46439;51.164;13.572;2023-07-13T05:51:45;3.50;;;1.70;;
60610;SDS011;46439;51.164;13.572;2023-07-13T05:54:13;3.10;;;1.60;;
60610;SDS011;46439;51.164;13.572;2023-07-13T05:56:42;12.80;;;2.10;;
60610;SDS011;46439;51.164;13.572;2023-07-13T05:59:10;6.40;;;2.00;;
60610;SDS011;46439;51.164;13.572;2023-07-13T06:01:39;2.90;;;1.80;;
60610;SDS011;46439;51.164;13.572;2023-07-13T06:04:07;4.80;;;1.90;;
60610;SDS011;46439;51.164;13.572;2023-07-13T06:06:36;4.80;;;1.70;;
60610;SDS011;46439;51.164;13.572;2023-07-13T06:09:04;4.70;;;2.20;;
60610;SDS011;46439;51.164;13.572;2023-07-13T06:11:33;7.50;;;2.10;;
60610;SDS011;46439;51.164;13.572;2023-07-13T06:14:01;4.80;;;1.80;;
60610;SDS011;46439;51.164;13.572;2023-07-13T06:16:30;4.40;;;1.60;;
60610;SDS011;46439;51.164;13.572;2023-07-13T06:18:59;3.70;;;1.80;;
60610;SDS011;46439;51.164;13.572;2023-07-13T06:21:27;3.60;;;1.70;;
60610;SDS011;46439;51.164;13.572;2023-07-13T06:23:56;2.50;;;1.70;;
60610;SDS011;46439;51.164;13.572;2023-07-13T06:26:24;9.10;;;2.20;;
60610;SDS011;46439;51.164;13.572;2023-07-13T06:28:53;5.30;;;1.80;;
60610;SDS011;46439;51.164;13.572;2023-07-13T06:31:21;5.10;;;1.80;;
60610;SDS011;46439;51.164;13.572;2023-07-13T06:33:50;2.30;;;1.50;;
60610;SDS011;46439;51.164;13.572;2023-07-13T06:36:18;2.30;;;1.60;;
60610;SDS011;46439;51.164;13.572;2023-07-13T06:38:47;4.80;;;1.60;;
60610;SDS011;46439;51.164;13.572;2023-07-13T06:41:15;3.90;;;2.00;;
60610;SDS011;46439;51.164;13.572;2023-07-13T06:43:44;4.60;;;1.90;;
60610;SDS011;46439;51.164;13.572;2023-07-13T06:46:12;3.10;;;1.70;;
60610;SDS011;46439;51.164;13.572;2023-07-13T06:48:41;2.70;;;1.90;;
60610;SDS011;46439;51.164;13.572;2023-07-13T06:51:09;2.50;;;1.70;;
60610;SDS011;46439;51.164;13.572;2023-07-13T06:53:38;3.30;;;1.70;;
60610;SDS011;46439;51.164;13.572;2023-07-13T06:56:06;3.70;;;1.80;;
60610;SDS011;46439;51.164;13.572;2023-07-13T06:58:34;5.00;;;1.90;;
60610;SDS011;46439;51.164;13.572;2023-07-13T07:01:03;6.40;;;2.10;;
60610;SDS011;46439;51.164;13.572;2023-07-13T07:03:32;4.40;;;1.90;;
60610;SDS011;46439;51.164;13.572;2023-07-13T07:06:01;4.50;;;1.90;;
60610;SDS011;46439;51.164;13.572;2023-07-13T07:08:36;3.20;;;1.80;;
60610;SDS011;46439;51.164;13.572;2023-07-13T07:11:05;2.50;;;1.50;;
60610;SDS011;46439;51.164;13.572;2023-07-13T07:13:34;4.60;;;1.70;;
60610;SDS011;46439;51.164;13.572;2023-07-13T07:16:03;5.80;;;1.70;;
60610;SDS011;46439;51.164;13.572;2023-07-13T07:18:32;2.20;;;1.70;;
60610;SDS011;46439;51.164;13.572;2023-07-13T07:21:01;3.50;;;1.60;;
60610;SDS011;46439;51.164;13.572;2023-07-13T07:23:29;4.60;;;1.60;;
60610;SDS011;46439;51.164;13.572;2023-07-13T07:25:58;4.30;;;1.60;;
60610;SDS011;46439;51.164;13.572;2023-07-13T07:28:26;3.10;;;1.90;;
60610;SDS011;46439;51.164;13.572;2023-07-13T07:30:56;2.40;;;1.40;;
60610;SDS011;46439;51.164;13.572;2023-07-13T07:33:25;2.50;;;1.60;;
60610;SDS011;46439;51.164;13.572;2023-07-13T07:35:53;2.80;;;1.60;;
60610;SDS011;46439;51.164;13.572;2023-07-13T07:38:22;4.40;;;1.90;;
60610;SDS011;46439;51.164;13.572;2023-07-13T07:40:50;4.40;;;1.80;;
60610;SDS011;46439;51.164;13.572;2023-07-13T07:43:19;3.90;;;1.70;;
60610;SDS011;46439;51.164;13.572;2023-07-13T07:45:48;4.80;;;1.60;;
60610;SDS011;46439;51.164;13.572;2023-07-13T07:48:16;3.40;;;1.60;;
60610;SDS011;46439;51.164;13.572;2023-07-13T07:50:45;3.20;;;1.70;;
60610;SDS011;46439;51.164;13.572;2023-07-13T07:53:13;3.20;;;1.70;;
60610;SDS011;46439;51.164;13.572;2023-07-13T07:55:42;5.50;;;1.70;;
60610;SDS011;46439;51.164;13.572;2023-07-13T07:58:11;11.60;;;1.80;;
60610;SDS011;46439;51.164;13.572;2023-07-13T08:00:40;4.50;;;1.70;;
60610;SDS011;46439;51.164;13.572;2023-07-13T08:03:08;2.30;;;1.80;;
60610;SDS011;46439;51.164;13.572;2023-07-13T08:05:37;3.40;;;1.60;;
60610;SDS011;46439;51.164;13.572;2023-07-13T08:08:05;4.00;;;1.70;;
60610;SDS011;46439;51.164;13.572;2023-07-13T08:10:36;5.30;;;2.40;;
60610;SDS011;46439;51.164;13.572;2023-07-13T08:13:04;5.10;;;1.60;;
60610;SDS011;46439;51.164;13.572;2023-07-13T08:15:33;3.40;;;1.60;;
60610;SDS011;46439;51.164;13.572;2023-07-13T08:18:01;3.80;;;1.60;;
60610;SDS011;46439;51.164;13.572;2023-07-13T08:20:30;4.40;;;1.70;;
60610;SDS011;46439;51.164;13.572;2023-07-13T08:22:58;3.50;;;2.00;;
60610;SDS011;46439;51.164;13.572;2023-07-13T08:25:27;3.90;;;1.60;;
60610;SDS011;46439;51.164;13.572;2023-07-13T08:27:55;2.80;;;1.50;;
60610;SDS011;46439;51.164;13.572;2023-07-13T08:30:23;3.30;;;1.40;;
60610;SDS011;46439;51.164;13.572;2023-07-13T08:32:52;3.80;;;1.60;;
60610;SDS011;46439;51.164;13.572;2023-07-13T08:35:21;3.80;;;1.40;;
60610;SDS011;46439;51.164;13.572;2023-07-13T08:37:52;3.50;;;1.60;;
60610;SDS011;46439;51.164;13.572;2023-07-13T08:40:22;3.40;;;1.50;;
60610;SDS011;46439;51.164;13.572;2023-07-13T08:42:53;2.30;;;1.50;;
60610;SDS011;46439;51.164;13.572;2023-07-13T08:45:24;2.10;;;1.50;;
60610;SDS011;46439;51.164;13.572;2023-07-13T08:47:57;6.10;;;1.50;;
60610;SDS011;46439;51.164;13.572;2023-07-13T08:50:38;3.10;;;1.60;;
60610;SDS011;46439;51.164;13.572;2023-07-13T08:53:22;3.00;;;1.70;;
60610;SDS011;46439;51.164;13.572;2023-07-13T08:55:57;2.70;;;1.70;;
60610;SDS011;46439;51.164;13.572;2023-07-13T08:58:27;1.60;;;1.40;;
60610;SDS011;46439;51.164;13.572;2023-07-13T09:00:58;2.80;;;1.30;;
60610;SDS011;46439;51.164;13.572;2023-07-13T09:03:39;3.30;;;1.40;;
60610;SDS011;46439;51.164;13.572;2023-07-13T09:06:13;3.40;;;1.60;;
60610;SDS011;46439;51.164;13.572;2023-07-13T09:08:46;3.70;;;1.50;;
60610;SDS011;46439;51.164;13.572;2023-07-13T09:11:26;1.80;;;1.40;;
60610;SDS011;46439;51.164;13.572;2023-07-13T09:14:13;3.90;;;1.50;;
60610;SDS011;46439;51.164;13.572;2023-07-13T09:17:00;2.80;;;1.40;;
60610;SDS011;46439;51.164;13.572;2023-07-13T09:19:32;3.80;;;1.80;;
60610;SDS011;46439;51.164;13.572;2023-07-13T09:22:03;2.70;;;1.60;;
60610;SDS011;46439;51.164;13.572;2023-07-13T09:24:38;4.70;;;1.30;;
60610;SDS011;46439;51.164;13.572;2023-07-13T09:27:17;3.10;;;1.50;;
60610;SDS011;46439;51.164;13.572;2023-07-13T09:29:49;2.90;;;1.40;;
60610;SDS011;46439;51.164;13.572;2023-07-13T09:32:24;3.50;;;1.50;;
60610;SDS011;46439;51.164;13.572;2023-07-13T09:34:53;2.70;;;1.40;;
60610;SDS011;46439;51.164;13.572;2023-07-13T09:37:22;2.90;;;1.30;;
60610;SDS011;46439;51.164;13.572;2023-07-13T09:39:55;2.50;;;1.40;;
60610;SDS011;46439;51.164;13.572;2023-07-13T09:42:24;4.40;;;1.60;;
60610;SDS011;46439;51.164;13.572;2023-07-13T09:44:55;2.90;;;1.50;;
60610;SDS011;46439;51.164;13.572;2023-07-13T09:47:26;4.60;;;1.40;;
60610;SDS011;46439;51.164;13.572;2023-07-13T09:49:59;3.20;;;1.50;;
60610;SDS011;46439;51.164;13.572;2023-07-13T09:52:38;3.80;;;1.40;;
60610;SDS011;46439;51.164;13.572;2023-07-13T09:55:19;1.90;;;1.00;;
60610;SDS011;46439;51.164;13.572;2023-07-13T09:57:53;3.10;;;1.40;;
60610;SDS011;46439;51.164;13.572;2023-07-13T10:00:22;5.80;;;1.40;;
60610;SDS011;46439;51.164;13.572;2023-07-13T10:03:02;1.70;;;1.40;;
60610;SDS011;46439;51.164;13.572;2023-07-13T10:05:39;2.70;;;1.40;;
60610;SDS011;46439;51.164;13.572;2023-07-13T10:08:20;5.10;;;1.30;;
60610;SDS011;46439;51.164;13.572;2023-07-13T10:13:28;1.50;;;1.40;;
60610;SDS011;46439;51.164;13.572;2023-07-13T10:15:59;3.60;;;1.50;;
60610;SDS011;46439;51.164;13.572;2023-07-13T10:18:28;2.80;;;1.50;;
60610;SDS011;46439;51.164;13.572;2023-07-13T10:21:09;2.70;;;1.60;;
60610;SDS011;46439;51.164;13.572;2023-07-13T10:23:40;3.80;;;1.50;;
60610;SDS011;46439;51.164;13.572;2023-07-13T10:26:14;3.30;;;1.20;;
60610;SDS011;46439;51.164;13.572;2023-07-13T10:28:46;3.60;;;1.40;;
60610;SDS011;46439;51.164;13.572;2023-07-13T10:31:19;2.10;;;1.30;;
60610;SDS011;46439;51.164;13.572;2023-07-13T10:33:49;2.40;;;1.40;;
60610;SDS011;46439;51.164;13.572;2023-07-13T10:36:27;2.70;;;1.50;;
60610;SDS011;46439;51.164;13.572;2023-07-13T10:39:01;4.40;;;1.50;;
60610;SDS011;46439;51.164;13.572;2023-07-13T10:41:32;3.10;;;1.80;;
60610;SDS011;46439;51.164;13.572;2023-07-13T10:44:04;3.50;;;1.70;;
60610;SDS011;46439;51.164;13.572;2023-07-13T10:46:42;4.10;;;1.60;;
60610;SDS011;46439;51.164;13.572;2023-07-13T10:49:11;2.00;;;1.30;;
60610;SDS011;46439;51.164;13.572;2023-07-13T10:51:41;5.30;;;1.50;;
60610;SDS011;46439;51.164;13.572;2023-07-13T10:54:14;3.60;;;1.60;;
60610;SDS011;46439;51.164;13.572;2023-07-13T10:56:52;2.40;;;1.60;;
60610;SDS011;46439;51.164;13.572;2023-07-13T10:59:36;2.10;;;1.40;;
60610;SDS011;46439;51.164;13.572;2023-07-13T11:02:11;4.60;;;1.70;;
60610;SDS011;46439;51.164;13.572;2023-07-13T11:04:48;2.50;;;1.60;;
60610;SDS011;46439;51.164;13.572;2023-07-13T11:09:50;2.60;;;1.50;;
60610;SDS011;46439;51.164;13.572;2023-07-13T11:15:27;3.00;;;1.60;;
60610;SDS011;46439;51.164;13.572;2023-07-13T11:18:19;4.30;;;1.40;;
60610;SDS011;46439;51.164;13.572;2023-07-13T11:20:50;3.30;;;1.50;;
60610;SDS011;46439;51.164;13.572;2023-07-13T11:23:38;3.00;;;1.40;;
60610;SDS011;46439;51.164;13.572;2023-07-13T11:29:12;1.50;;;1.20;;
60610;SDS011;46439;51.164;13.572;2023-07-13T11:31:59;2.10;;;1.30;;
60610;SDS011;46439;51.164;13.572;2023-07-13T11:34:47;3.90;;;1.30;;
60610;SDS011;46439;51.164;13.572;2023-07-13T11:37:17;2.90;;;1.40;;
60610;SDS011;46439;51.164;13.572;2023-07-13T11:39:48;6.50;;;1.50;;
60610;SDS011;46439;51.164;13.572;2023-07-13T11:42:19;3.30;;;1.40;;
60610;SDS011;46439;51.164;13.572;2023-07-13T11:44:49;2.10;;;1.20;;
60610;SDS011;46439;51.164;13.572;2023-07-13T11:49:50;2.50;;;1.30;;
60610;SDS011;46439;51.164;13.572;2023-07-13T11:52:23;2.00;;;1.30;;
60610;SDS011;46439;51.164;13.572;2023-07-13T11:55:00;4.00;;;1.50;;
60610;SDS011;46439;51.164;13.572;2023-07-13T11:57:36;4.40;;;1.60;;
60610;SDS011;46439;51.164;13.572;2023-07-13T12:00:12;2.50;;;1.30;;
60610;SDS011;46439;51.164;13.572;2023-07-13T12:02:44;2.50;;;1.20;;
60610;SDS011;46439;51.164;13.572;2023-07-13T12:05:16;3.10;;;1.40;;
60610;SDS011;46439;51.164;13.572;2023-07-13T12:07:47;2.00;;;1.40;;
60610;SDS011;46439;51.164;13.572;2023-07-13T12:10:20;2.90;;;1.40;;
60610;SDS011;46439;51.164;13.572;2023-07-13T12:12:51;3.60;;;1.40;;
60610;SDS011;46439;51.164;13.572;2023-07-13T12:15:21;3.30;;;1.30;;
60610;SDS011;46439;51.164;13.572;2023-07-13T12:17:55;3.60;;;1.30;;
60610;SDS011;46439;51.164;13.572;2023-07-13T12:20:25;2.70;;;1.40;;
60610;SDS011;46439;51.164;13.572;2023-07-13T12:22:56;3.00;;;1.40;;
60610;SDS011;46439;51.164;13.572;2023-07-13T12:25:25;1.40;;;1.30;;
60610;SDS011;46439;51.164;13.572;2023-07-13T12:27:54;1.70;;;1.40;;
60610;SDS011;46439;51.164;13.572;2023-07-13T12:30:27;3.20;;;1.60;;
60610;SDS011;46439;51.164;13.572;2023-07-13T12:32:58;2.90;;;1.40;;
60610;SDS011;46439;51.164;13.572;2023-07-13T12:35:39;3.60;;;1.40;;
60610;SDS011;46439;51.164;13.572;2023-07-13T12:38:11;2.60;;;1.30;;
60610;SDS011;46439;51.164;13.572;2023-07-13T12:40:40;2.20;;;1.50;;
60610;SDS011;46439;51.164;13.572;2023-07-13T12:43:12;3.00;;;1.50;;
60610;SDS011;46439;51.164;13.572;2023-07-13T12:45:45;1.60;;;1.30;;
60610;SDS011;46439;51.164;13.572;2023-07-13T12:48:24;2.90;;;1.40;;
60610;SDS011;46439;51.164;13.572;2023-07-13T12:50:54;5.70;;;1.50;;
60610;SDS011;46439;51.164;13.572;2023-07-13T12:53:29;2.00;;;1.50;;
60610;SDS011;46439;51.164;13.572;2023-07-13T12:55:59;2.50;;;1.50;;
60610;SDS011;46439;51.164;13.572;2023-07-13T12:58:32;3.40;;;1.40;;
60610;SDS011;46439;51.164;13.572;2023-07-13T13:01:03;3.00;;;1.40;;
60610;SDS011;46439;51.164;13.572;2023-07-13T13:03:34;6.60;;;1.40;;
60610;SDS011;46439;51.164;13.572;2023-07-13T13:06:05;4.60;;;1.40;;
60610;SDS011;46439;51.164;13.572;2023-07-13T13:08:47;2.20;;;1.30;;
60610;SDS011;46439;51.164;13.572;2023-07-13T13:11:18;1.60;;;1.50;;
60610;SDS011;46439;51.164;13.572;2023-07-13T13:13:49;3.30;;;1.50;;
60610;SDS011;46439;51.164;13.572;2023-07-13T13:16:20;4.20;;;1.50;;
60610;SDS011;46439;51.164;13.572;2023-07-13T13:18:51;4.70;;;1.40;;
60610;SDS011;46439;51.164;13.572;2023-07-13T13:21:24;2.80;;;1.40;;
60610;SDS011;46439;51.164;13.572;2023-07-13T13:23:52;4.00;;;1.50;;
60610;SDS011;46439;51.164;13.572;2023-07-13T13:26:22;3.80;;;1.60;;
60610;SDS011;46439;51.164;13.572;2023-07-13T13:28:50;3.90;;;1.40;;
60610;SDS011;46439;51.164;13.572;2023-07-13T13:31:20;3.40;;;1.60;;
60610;SDS011;46439;51.164;13.572;2023-07-13T13:33:48;2.90;;;1.40;;
60610;SDS011;46439;51.164;13.572;2023-07-13T13:36:17;2.00;;;1.40;;
60610;SDS011;46439;51.164;13.572;2023-07-13T13:38:47;2.50;;;1.60;;
60610;SDS011;46439;51.164;13.572;2023-07-13T13:41:16;2.50;;;1.50;;
60610;SDS011;46439;51.164;13.572;2023-07-13T13:43:45;4.40;;;1.40;;
60610;SDS011;46439;51.164;13.572;2023-07-13T13:46:15;3.80;;;1.50;;
60610;SDS011;46439;51.164;13.572;2023-07-13T13:48:45;3.30;;;1.50;;
60610;SDS011;46439;51.164;13.572;2023-07-13T13:51:15;3.60;;;1.50;;
60610;SDS011;46439;51.164;13.572;2023-07-13T13:53:45;7.40;;;1.60;;
60610;SDS011;46439;51.164;13.572;2023-07-13T13:56:15;3.10;;;1.40;;
60610;SDS011;46439;51.164;13.572;2023-07-13T13:58:44;3.10;;;1.40;;
60610;SDS011;46439;51.164;13.572;2023-07-13T14:01:14;2.60;;;1.40;;
60610;SDS011;46439;51.164;13.572;2023-07-13T14:03:46;1.50;;;1.40;;
60610;SDS011;46439;51.164;13.572;2023-07-13T14:06:20;1.80;;;1.30;;
60610;SDS011;46439;51.164;13.572;2023-07-13T14:08:49;5.70;;;2.00;;
60610;SDS011;46439;51.164;13.572;2023-07-13T14:11:18;1.70;;;1.50;;
60610;SDS011;46439;51.164;13.572;2023-07-13T14:13:49;3.30;;;1.50;;
60610;SDS011;46439;51.164;13.572;2023-07-13T14:16:20;2.90;;;1.40;;
60610;SDS011;46439;51.164;13.572;2023-07-13T14:18:54;2.10;;;1.50;;
60610;SDS011;46439;51.164;13.572;2023-07-13T14:21:25;6.60;;;1.40;;
60610;SDS011;46439;51.164;13.572;2023-07-13T14:23:56;10.20;;;1.60;;
60610;SDS011;46439;51.164;13.572;2023-07-13T14:26:25;6.00;;;1.50;;
60610;SDS011;46439;51.164;13.572;2023-07-13T14:28:57;2.40;;;1.50;;
60610;SDS011;46439;51.164;13.572;2023-07-13T14:31:26;3.10;;;1.40;;
60610;SDS011;46439;51.164;13.572;2023-07-13T14:33:55;1.60;;;1.20;;
60610;SDS011;46439;51.164;13.572;2023-07-13T14:36:28;4.90;;;1.10;;
60610;SDS011;46439;51.164;13.572;2023-07-13T14:39:00;4.10;;;1.40;;
60610;SDS011;46439;51.164;13.572;2023-07-13T14:41:38;3.80;;;1.40;;
60610;SDS011;46439;51.164;13.572;2023-07-13T14:44:10;4.70;;;1.30;;
60610;SDS011;46439;51.164;13.572;2023-07-13T14:46:39;5.30;;;1.60;;
60610;SDS011;46439;51.164;13.572;2023-07-13T14:49:13;3.90;;;1.10;;
60610;SDS011;46439;51.164;13.572;2023-07-13T14:51:48;5.60;;;1.40;;
60610;SDS011;46439;51.164;13.572;2023-07-13T14:54:17;2.30;;;1.30;;
60610;SDS011;46439;51.164;13.572;2023-07-13T14:56:45;2.70;;;1.40;;
60610;SDS011;46439;51.164;13.572;2023-07-13T14:59:14;1.70;;;1.10;;
60610;SDS011;46439;51.164;13.572;2023-07-13T15:01:42;2.50;;;1.40;;
60610;SDS011;46439;51.164;13.572;2023-07-13T15:04:12;5.80;;;1.40;;
60610;SDS011;46439;51.164;13.572;2023-07-13T15:06:57;1.90;;;1.30;;
60610;SDS011;46439;51.164;13.572;2023-07-13T15:09:26;3.50;;;1.30;;
60610;SDS011;46439;51.164;13.572;2023-07-13T15:11:58;3.70;;;1.20;;
60610;SDS011;46439;51.164;13.572;2023-07-13T15:14:27;3.80;;;1.20;;